Time;durP1;ratioP1;P1;durP2;ratioP2;P2;SDS_P1;SDS_P2;PMS_P1;PMS_P2;Temp;Humidity;BMP_temperature;BMP_pressure;BME280_temperature;BME280_humidity;BME280_pressure;Samples;Min_cycle;Max_cycle;Signal;HPM_P1;HPM_P2
2022/02/22 00:01:18;;;;;;;16.88;13.27;;;;;;;10.74;66.95;100173.44;5051698;27;102572;-49
2022/02/22 00:03:45;;;;;;;17.02;13.05;;;;;;;10.74;66.30;100165.25;5038216;27;103065;-49
2022/02/22 00:06:11;;;;;;;17.33;13.02;;;;;;;10.74;66.68;100170.72;5044547;27;103813;-49
2022/02/22 00:08:37;;;;;;;18.25;13.13;;;;;;;10.74;66.49;100165.25;5049718;27;102807;-48
2022/02/22 00:11:04;;;;;;;18.25;12.77;;;;;;;10.74;66.69;100173.44;5038712;27;102382;-49
2022/02/22 00:13:30;;;;;;;17.23;12.65;;;;;;;10.74;66.80;100170.72;5029798;27;102152;-49
2022/02/22 00:15:58;;;;;;;17.35;12.90;;;;;;;10.74;66.74;100168.00;5025618;27;103828;-48
2022/02/22 00:18:27;;;;;;;17.20;12.50;;;;;;;10.75;66.87;100171.56;5032873;27;102576;-49
2022/02/22 00:20:54;;;;;;;20.30;13.30;;;;;;;10.75;66.80;100172.34;5036493;27;103040;-49
2022/02/22 00:23:20;;;;;;;16.70;13.15;;;;;;;10.75;66.67;100171.56;5041154;27;103007;-49
2022/02/22 00:25:47;;;;;;;16.45;12.90;;;;;;;10.75;67.08;100177.81;5050147;27;103739;-48
2022/02/22 00:28:13;;;;;;;17.27;12.98;;;;;;;10.74;66.75;100170.72;5035375;27;102668;-48
2022/02/22 00:30:40;;;;;;;18.23;13.30;;;;;;;10.74;66.67;100162.53;5037351;27;102530;-49
2022/02/22 00:33:06;;;;;;;16.10;11.88;;;;;;;10.74;66.61;100159.00;5046983;27;102379;-49
2022/02/22 00:35:34;;;;;;;18.33;12.88;;;;;;;10.74;67.03;100165.25;5039398;27;102713;-49
2022/02/22 00:38:00;;;;;;;21.77;13.23;;;;;;;10.73;66.85;100158.22;5047093;27;104077;-49
2022/02/22 00:40:26;;;;;;;14.68;12.13;;;;;;;10.74;67.02;100162.53;5036611;27;102583;-48
2022/02/22 00:42:53;;;;;;;15.30;12.93;;;;;;;10.74;66.92;100159.81;5025445;27;102760;-49
2022/02/22 00:45:19;;;;;;;18.40;13.02;;;;;;;10.74;67.07;100159.81;5026970;27;104000;-49
2022/02/22 00:47:45;;;;;;;17.02;12.82;;;;;;;10.74;66.61;100154.38;5024446;27;102348;-49
2022/02/22 00:50:12;;;;;;;18.35;13.55;;;;;;;10.74;67.02;100148.13;5031675;27;102706;-49
2022/02/22 00:52:40;;;;;;;17.42;12.55;;;;;;;10.74;67.40;100140.78;5033131;27;105396;-49
2022/02/22 00:55:08;;;;;;;19.50;13.05;;;;;;;10.74;67.01;100138.06;5040105;27;103686;-49
2022/02/22 00:57:37;;;;;;;17.42;13.30;;;;;;;10.74;66.84;100131.81;5046132;27;102388;-49
2022/02/22 01:00:05;;;;;;;19.65;12.48;;;;;;;10.75;67.01;100136.16;5048199;27;102714;-49
2022/02/22 01:02:31;;;;;;;17.60;13.30;;;;;;;10.74;67.16;100132.59;5047376;27;102270;-49
2022/02/22 01:04:57;;;;;;;16.48;12.30;;;;;;;10.74;66.80;100127.16;5045850;27;104041;-48
2022/02/22 01:07:24;;;;;;;15.73;12.27;;;;;;;10.74;66.60;100121.72;5027397;27;102386;-50
2022/02/22 01:10:00;;;;;;;16.95;13.65;;;;;;;10.74;66.61;100132.59;5044770;27;102500;-48
2022/02/22 01:12:26;;;;;;;18.77;13.82;;;;;;;10.75;67.16;100133.44;5030085;27;102558;-48
2022/02/22 01:14:52;;;;;;;15.82;12.65;;;;;;;10.74;66.56;100135.31;5039739;27;104019;-49
2022/02/22 01:17:19;;;;;;;16.73;13.23;;;;;;;10.74;66.94;100124.44;5040484;27;102668;-49
2022/02/22 01:19:45;;;;;;;18.85;13.32;;;;;;;10.75;67.12;100123.38;5028209;27;102282;-48
2022/02/22 01:22:11;;;;;;;15.70;12.20;;;;;;;10.76;67.10;100126.91;5030483;27;104090;-49
2022/02/22 01:24:37;;;;;;;17.55;13.52;;;;;;;10.75;66.80;100117.91;5045513;27;103906;-49
2022/02/22 01:27:05;;;;;;;17.55;13.20;;;;;;;10.74;67.12;100113.56;5023475;27;102249;-48
2022/02/22 01:29:32;;;;;;;16.90;12.68;;;;;;;10.76;66.52;100107.84;5025998;27;102161;-49
2022/02/22 01:31:59;;;;;;;16.52;12.75;;;;;;;10.75;66.94;100106.22;5028326;27;102433;-49
2022/02/22 01:34:26;;;;;;;18.17;13.27;;;;;;;10.75;66.92;100101.59;5026468;27;104200;-49
2022/02/22 01:36:53;;;;;;;19.15;13.13;;;;;;;10.74;67.09;100094.50;5040277;27;103370;-49
2022/02/22 01:39:19;;;;;;;17.95;13.57;;;;;;;10.74;67.16;100097.22;5028532;27;102028;-49
2022/02/22 01:41:46;;;;;;;17.67;13.52;;;;;;;10.76;66.99;100086.06;5046382;27;102289;-49
2022/02/22 01:44:14;;;;;;;19.70;13.70;;;;;;;10.75;67.00;100090.72;5045026;27;103844;-48
2022/02/22 01:46:41;;;;;;;17.13;12.13;;;;;;;10.76;66.85;100096.97;5035488;27;102670;-48
2022/02/22 01:49:07;;;;;;;16.15;12.55;;;;;;;10.75;67.07;100087.97;5024193;27;102513;-49
2022/02/22 01:51:34;;;;;;;15.98;12.98;;;;;;;10.76;67.11;100083.34;5030367;27;102791;-48
2022/02/22 01:54:00;;;;;;;19.10;13.27;;;;;;;10.75;67.06;100085.25;5040549;27;103884;-49
2022/02/22 01:56:26;;;;;;;18.17;13.52;;;;;;;10.75;66.85;100068.94;5044207;27;103244;-49
2022/02/22 01:58:53;;;;;;;15.20;13.18;;;;;;;10.75;67.06;100063.50;5025116;27;102216;-49
2022/02/22 02:01:20;;;;;;;19.80;12.98;;;;;;;10.76;66.95;100073.28;5034322;27;102758;-50
2022/02/22 02:03:49;;;;;;;18.98;14.00;;;;;;;10.75;67.12;100074.38;5049543;27;103904;-48
2022/02/22 02:06:18;;;;;;;20.70;13.27;;;;;;;10.76;66.90;100072.47;5042249;27;102339;-49
2022/02/22 02:08:45;;;;;;;18.90;13.15;;;;;;;10.76;66.96;100070.53;5048140;27;103183;-49
2022/02/22 02:11:11;;;;;;;17.65;12.60;;;;;;;10.76;67.32;100070.53;5042967;27;102668;-49
2022/02/22 02:13:38;;;;;;;17.08;12.38;;;;;;;10.75;67.01;100068.94;5028741;27;103872;-49
2022/02/22 02:16:06;;;;;;;18.27;13.55;;;;;;;10.76;67.00;100058.84;5042628;27;102594;-49
2022/02/22 02:18:34;;;;;;;17.95;13.30;;;;;;;10.76;67.07;100067.00;5036484;27;102880;-51
2022/02/22 02:21:01;;;;;;;15.98;13.00;;;;;;;10.76;67.05;100056.94;5049919;27;102358;-49
2022/02/22 02:23:29;;;;;;;17.88;13.80;;;;;;;10.76;67.11;100064.28;5046515;27;104030;-49
2022/02/22 02:25:55;;;;;;;18.48;12.85;;;;;;;10.75;67.32;100063.50;5044487;27;102113;-49
2022/02/22 02:28:21;;;;;;;16.50;13.73;;;;;;;10.76;67.13;100073.28;5045730;27;102346;-49
2022/02/22 02:30:49;;;;;;;17.40;13.65;;;;;;;10.76;66.94;100065.09;5037764;27;102797;-49
2022/02/22 02:33:15;;;;;;;17.65;13.50;;;;;;;10.76;67.24;100064.28;5037580;27;104056;-49
2022/02/22 02:35:42;;;;;;;17.85;13.23;;;;;;;10.76;67.04;100061.56;5031411;27;104078;-49
2022/02/22 02:38:08;;;;;;;18.55;13.63;;;;;;;10.75;67.13;100060.75;5032973;27;102308;-49
2022/02/22 02:40:36;;;;;;;16.70;13.13;;;;;;;10.76;66.73;100062.38;5031563;27;102729;-49
2022/02/22 02:43:02;;;;;;;17.08;12.80;;;;;;;10.77;67.04;100058.56;5032112;27;104021;-50
2022/02/22 02:45:29;;;;;;;17.85;13.82;;;;;;;10.76;67.21;100061.56;5055654;27;102682;-50
2022/02/22 02:47:55;;;;;;;18.73;13.88;;;;;;;10.76;67.02;100056.94;5034736;27;103102;-50
2022/02/22 02:50:22;;;;;;;18.38;13.73;;;;;;;10.76;66.90;100067.81;5024485;27;103620;-49
2022/02/22 02:52:48;;;;;;;16.20;13.23;;;;;;;10.75;67.42;100049.88;5026239;27;103876;-49
2022/02/22 02:55:14;;;;;;;18.38;13.15;;;;;;;10.76;67.16;100062.38;5022394;27;102348;-49
2022/02/22 02:57:41;;;;;;;17.92;13.82;;;;;;;10.76;67.29;100053.41;5020182;27;102667;-49
2022/02/22 03:00:08;;;;;;;16.65;13.25;;;;;;;10.76;66.92;100047.97;5025621;27;102156;-49
2022/02/22 03:02:35;;;;;;;16.50;13.00;;;;;;;10.75;67.30;100047.16;5023277;27;103936;-49
2022/02/22 03:05:02;;;;;;;16.60;12.95;;;;;;;10.76;67.04;100050.69;5022370;27;102470;-51
2022/02/22 03:07:28;;;;;;;18.90;13.25;;;;;;;10.76;67.08;100043.34;5023500;27;102296;-50
2022/02/22 03:09:55;;;;;;;16.40;13.10;;;;;;;10.76;67.43;100048.78;5025274;27;102565;-49
2022/02/22 03:12:21;;;;;;;17.33;13.75;;;;;;;10.75;67.18;100049.88;5024856;27;103849;-49
2022/02/22 03:14:49;;;;;;;17.85;13.95;;;;;;;10.76;67.10;100053.41;5022611;27;102882;-49
2022/02/22 03:17:15;;;;;;;15.82;12.95;;;;;;;10.75;67.43;100047.16;5024912;27;102593;-49
2022/02/22 03:19:41;;;;;;;18.67;13.63;;;;;;;10.75;67.22;100052.59;5030606;27;102878;-49
2022/02/22 03:22:08;;;;;;;16.55;13.88;;;;;;;10.75;67.11;100051.78;5018068;27;103635;-49
2022/02/22 03:24:34;;;;;;;19.23;13.95;;;;;;;10.75;66.99;100058.03;5017789;27;102173;-49
2022/02/22 03:27:00;;;;;;;20.05;14.73;;;;;;;10.76;67.43;100053.41;5023354;27;102564;-49
2022/02/22 03:29:27;;;;;;;19.52;14.10;;;;;;;10.75;66.86;100047.16;5024769;27;103371;-49
2022/02/22 03:31:55;;;;;;;18.25;14.52;;;;;;;10.75;67.36;100047.16;5024146;27;103909;-49
2022/02/22 03:34:21;;;;;;;18.70;13.95;;;;;;;10.75;67.09;100049.06;5034651;27;102550;-49
2022/02/22 03:36:47;;;;;;;18.67;13.95;;;;;;;10.75;67.11;100052.59;5032542;27;102380;-49
2022/02/22 03:39:14;;;;;;;19.40;14.13;;;;;;;10.75;67.29;100049.88;5046721;27;102933;-48
2022/02/22 03:41:40;;;;;;;19.48;14.35;;;;;;;10.75;67.45;100051.78;5018798;27;104778;-49
2022/02/22 03:44:07;;;;;;;18.92;14.38;;;;;;;10.75;67.14;100047.16;5038035;27;102317;-49
2022/02/22 03:46:33;;;;;;;17.83;13.55;;;;;;;10.75;67.18;100040.91;5047908;27;102792;-49
2022/02/22 03:49:01;;;;;;;18.20;13.50;;;;;;;10.74;67.24;100045.50;5049846;27;102355;-50
2022/02/22 03:51:28;;;;;;;19.57;14.07;;;;;;;10.76;67.49;100047.97;5035076;27;103612;-50
2022/02/22 03:53:59;;;;;;;17.73;13.82;;;;;;;10.75;67.27;100047.16;5031714;27;102487;-49
2022/02/22 03:56:25;;;;;;;18.92;13.73;;;;;;;10.75;66.83;100041.72;5044179;27;102358;-50
2022/02/22 03:58:51;;;;;;;18.27;14.35;;;;;;;10.75;67.37;100039.00;5030415;27;102103;-50
2022/02/22 04:01:18;;;;;;;17.67;14.30;;;;;;;10.75;67.29;100039.00;5040586;27;104374;-50
2022/02/22 04:03:44;;;;;;;19.13;13.75;;;;;;;10.75;67.13;100040.91;5041504;27;102626;-49
2022/02/22 04:06:12;;;;;;;16.75;13.35;;;;;;;10.75;67.58;100041.72;5042214;27;102577;-49
2022/02/22 04:08:40;;;;;;;17.88;14.02;;;;;;;10.74;67.15;100037.34;5045389;27;103281;-50
2022/02/22 04:11:06;;;;;;;17.75;14.13;;;;;;;10.75;67.27;100041.72;5040439;27;104880;-49
2022/02/22 04:13:33;;;;;;;17.75;13.35;;;;;;;10.75;67.58;100041.72;5024514;27;103398;-49
2022/02/22 04:15:59;;;;;;;19.90;14.25;;;;;;;10.75;66.69;100039.00;5047493;27;102006;-49
2022/02/22 04:18:25;;;;;;;19.13;13.80;;;;;;;10.75;67.16;100036.28;5048698;27;103181;-50
2022/02/22 04:20:52;;;;;;;17.35;13.38;;;;;;;10.75;67.49;100040.91;5047629;27;103933;-49
2022/02/22 04:23:20;;;;;;;16.02;13.65;;;;;;;10.75;67.73;100035.47;5045189;27;102044;-49
2022/02/22 04:25:48;;;;;;;20.00;13.88;;;;;;;10.74;67.31;100037.34;5053564;27;103434;-49
2022/02/22 04:28:14;;;;;;;19.40;14.40;;;;;;;10.75;67.23;100036.28;5029802;27;102182;-50
2022/02/22 04:30:40;;;;;;;18.77;13.98;;;;;;;10.75;67.09;100036.28;5022634;27;104077;-50
2022/02/22 04:33:07;;;;;;;19.55;13.85;;;;;;;10.75;67.27;100039.00;5042821;27;102845;-52
2022/02/22 04:35:33;;;;;;;18.25;13.23;;;;;;;10.75;67.11;100041.72;5015585;27;102687;-49
2022/02/22 04:38:00;;;;;;;16.23;14.13;;;;;;;10.75;67.27;100036.28;5022826;28;102855;-50
2022/02/22 04:40:29;;;;;;;20.92;14.18;;;;;;;10.75;67.90;100036.28;5025827;27;103909;-50
2022/02/22 04:42:56;;;;;;;18.70;13.45;;;;;;;10.76;67.58;100042.53;5023792;27;102311;-49
2022/02/22 04:45:22;;;;;;;20.75;13.88;;;;;;;10.76;67.34;100046.06;5042486;27;102292;-49
2022/02/22 04:47:50;;;;;;;20.15;14.05;;;;;;;10.76;67.54;100053.41;5019398;27;102778;-49
2022/02/22 04:50:18;;;;;;;16.83;13.38;;;;;;;10.76;67.43;100059.66;5031401;27;102696;-49
2022/02/22 04:52:45;;;;;;;18.08;14.52;;;;;;;10.76;67.20;100059.66;5025813;27;104013;-49
2022/02/22 04:55:11;;;;;;;17.52;13.80;;;;;;;10.77;67.21;100072.16;5047028;27;102130;-49
2022/02/22 04:57:40;;;;;;;16.70;13.40;;;;;;;10.76;67.34;100064.28;5033883;27;102453;-49
2022/02/22 05:00:10;;;;;;;;;;;;;;;10.77;67.50;100072.16;5027701;27;104401;-49
2022/02/22 05:02:36;;;;;;;20.42;13.10;;;;;;;10.77;67.25;100072.16;5046217;27;102332;-49
2022/02/22 05:05:03;;;;;;;17.90;13.77;;;;;;;10.77;67.57;100072.16;5042419;27;102345;-49
2022/02/22 05:07:30;;;;;;;17.40;13.13;;;;;;;10.77;67.12;100074.88;5051216;27;103032;-50
2022/02/22 05:09:56;;;;;;;18.50;13.73;;;;;;;10.77;67.72;100066.72;5046357;27;104086;-49
2022/02/22 05:12:24;;;;;;;17.20;12.77;;;;;;;10.77;67.25;100072.16;5043683;27;102191;-49
2022/02/22 05:14:52;;;;;;;17.75;13.63;;;;;;;10.77;67.60;100077.59;5033912;27;102493;-50
2022/02/22 05:17:18;;;;;;;16.70;13.65;;;;;;;10.77;67.71;100072.16;5031969;27;102218;-49
2022/02/22 05:19:45;;;;;;;19.13;13.40;;;;;;;10.79;67.55;100080.06;5044336;27;104000;-50
2022/02/22 05:22:11;;;;;;;18.20;13.63;;;;;;;10.78;67.79;100079.25;5044965;27;102656;-49
2022/02/22 05:24:37;;;;;;;18.73;13.73;;;;;;;10.78;67.77;100081.97;5024584;27;103998;-49
2022/02/22 05:27:04;;;;;;;19.20;13.45;;;;;;;10.79;67.51;100080.84;5026158;27;103539;-49
2022/02/22 05:29:32;;;;;;;18.23;13.23;;;;;;;10.79;67.41;100089.03;5022015;27;103897;-49
2022/02/22 05:32:00;;;;;;;18.02;14.60;;;;;;;10.79;67.35;100091.75;5026667;27;102305;-49
2022/02/22 05:34:30;;;;;;;18.42;14.63;;;;;;;10.80;67.93;100092.56;5035451;27;102456;-49
2022/02/22 05:36:59;;;;;;;20.90;14.43;;;;;;;10.79;67.13;100086.31;5032956;27;102901;-50
2022/02/22 05:39:25;;;;;;;;;;;;;;;10.78;67.63;100090.13;5027060;27;103383;-49
2022/02/22 05:41:51;;;;;;;18.90;13.80;;;;;;;10.79;67.58;100086.31;5024176;27;102543;-49
2022/02/22 05:44:18;;;;;;;18.13;13.63;;;;;;;10.78;67.37;100084.69;5023070;27;102481;-49
2022/02/22 05:46:45;;;;;;;16.45;13.38;;;;;;;10.79;67.51;100089.03;5028521;27;102380;-50
2022/02/22 05:49:13;;;;;;;21.63;13.38;;;;;;;10.79;67.78;100086.31;5027901;27;103303;-50
2022/02/22 05:51:39;;;;;;;17.17;13.57;;;;;;;10.80;67.85;100096.09;5024081;27;102928;-50
2022/02/22 05:54:05;;;;;;;19.17;13.98;;;;;;;10.80;67.21;100098.81;5023620;27;102314;-49
2022/02/22 05:56:32;;;;;;;20.70;13.75;;;;;;;10.80;67.79;100087.91;5027322;27;103346;-50
2022/02/22 05:59:02;;;;;;;17.25;13.05;;;;;;;10.81;67.94;100097.69;5025092;27;103913;-49
2022/02/22 06:01:28;;;;;;;16.80;13.73;;;;;;;10.81;67.80;100102.34;5039166;27;102442;-49
2022/02/22 06:03:55;;;;;;;19.73;13.85;;;;;;;10.81;68.14;100099.63;5022417;27;102598;-49
2022/02/22 06:06:23;;;;;;;15.82;13.07;;;;;;;10.83;67.92;100109.13;5037016;27;102640;-49
2022/02/22 06:08:49;;;;;;;19.35;13.30;;;;;;;10.83;67.92;100105.59;5038114;27;103886;-50
2022/02/22 06:11:16;;;;;;;17.05;13.55;;;;;;;10.82;67.67;100110.22;5042573;27;102058;-49
2022/02/22 06:13:43;;;;;;;17.85;13.35;;;;;;;10.83;67.57;100109.13;5035753;27;102473;-49
2022/02/22 06:16:10;;;;;;;17.13;13.13;;;;;;;10.82;67.84;100107.50;5046910;27;102428;-49
2022/02/22 06:18:37;;;;;;;15.35;13.23;;;;;;;10.84;67.98;100104.47;5042853;27;102788;-49
2022/02/22 06:21:03;;;;;;;16.73;13.50;;;;;;;10.83;67.73;100109.13;5041629;27;102472;-49
2022/02/22 06:23:31;;;;;;;17.13;13.18;;;;;;;10.85;67.31;100122.44;5046924;27;102493;-49
2022/02/22 06:25:58;;;;;;;17.65;13.07;;;;;;;10.85;67.81;100132.50;5043041;27;102517;-50
2022/02/22 06:28:24;;;;;;;18.00;13.65;;;;;;;10.86;68.07;100131.44;5051765;27;103691;-50
2022/02/22 06:30:50;;;;;;;19.52;13.25;;;;;;;10.86;67.57;100139.59;5034343;27;102569;-49
2022/02/22 06:33:17;;;;;;;18.13;13.32;;;;;;;10.86;68.07;100145.03;5023538;28;103723;-49
2022/02/22 06:35:43;;;;;;;16.58;12.98;;;;;;;10.87;67.62;100149.38;5022245;27;102197;-50
2022/02/22 06:38:10;;;;;;;15.90;13.48;;;;;;;10.86;67.74;100150.50;5022416;27;103951;-50
2022/02/22 06:40:38;;;;;;;18.00;14.07;;;;;;;10.88;68.12;100159.16;5024497;27;102205;-50
2022/02/22 06:43:04;;;;;;;17.73;12.82;;;;;;;10.86;68.27;100147.78;5023014;27;102571;-51
2022/02/22 06:45:31;;;;;;;15.23;12.88;;;;;;;10.88;67.71;100153.72;5017638;27;103109;-50
2022/02/22 06:47:57;;;;;;;16.15;12.93;;;;;;;10.87;67.30;100146.66;5018185;27;103865;-49
2022/02/22 06:50:24;;;;;;;17.05;13.27;;;;;;;10.87;67.68;100157.56;5030604;27;108790;-49
2022/02/22 06:52:52;;;;;;;17.83;12.82;;;;;;;10.88;67.95;100159.16;5036911;27;102871;-50
2022/02/22 06:55:18;;;;;;;18.00;13.27;;;;;;;10.87;67.75;100163.00;5040782;27;102547;-50
2022/02/22 06:57:51;;;;;;;17.40;13.07;;;;;;;10.87;67.91;100168.44;5026250;27;103969;-49
2022/02/22 07:00:18;;;;;;;15.57;12.73;;;;;;;10.87;68.06;100161.09;5038165;27;103793;-49
2022/02/22 07:02:45;;;;;;;16.98;12.52;;;;;;;10.88;67.78;100159.16;5041676;27;102638;-49
2022/02/22 07:05:11;;;;;;;16.55;12.82;;;;;;;10.87;68.03;100147.47;5044615;27;102588;-49
2022/02/22 07:07:44;;;;;;;16.15;13.27;;;;;;;10.87;67.75;100150.19;5038742;27;103974;-49
2022/02/22 07:10:10;;;;;;;15.57;13.23;;;;;;;10.89;67.74;100161.63;5023569;27;102753;-49
2022/02/22 07:12:36;;;;;;;14.95;13.35;;;;;;;10.88;68.04;100159.16;5022881;27;102492;-49
2022/02/22 07:15:05;;;;;;;15.75;12.23;;;;;;;10.89;68.14;100166.22;5019646;27;102586;-49
2022/02/22 07:17:32;;;;;;;19.90;13.88;;;;;;;10.88;67.79;100170.88;5019241;27;103729;-49
2022/02/22 07:19:58;;;;;;;18.02;12.95;;;;;;;10.88;67.63;100159.16;5020320;27;102351;-49
2022/02/22 07:22:24;;;;;;;18.77;14.05;;;;;;;10.89;67.82;100158.91;5015199;27;102487;-49
2022/02/22 07:24:51;;;;;;;18.17;12.63;;;;;;;10.88;68.16;100149.09;5031100;27;102653;-49
2022/02/22 07:27:17;;;;;;;17.60;12.98;;;;;;;10.88;67.99;100159.97;5041101;27;107792;-50
2022/02/22 07:29:43;;;;;;;15.80;12.55;;;;;;;10.89;67.59;100158.06;5018523;27;102769;-49
2022/02/22 07:32:11;;;;;;;19.85;12.65;;;;;;;10.90;68.13;100159.72;5033277;27;102482;-50
2022/02/22 07:34:37;;;;;;;18.02;13.35;;;;;;;10.88;68.02;100157.25;5037152;27;102482;-49
2022/02/22 07:37:04;;;;;;;20.33;13.10;;;;;;;10.89;68.08;100155.34;5024627;27;103681;-50
2022/02/22 07:39:30;;;;;;;21.15;13.25;;;;;;;10.89;68.10;100160.78;5019491;27;102315;-49
2022/02/22 07:41:57;;;;;;;18.42;12.90;;;;;;;10.90;67.68;100162.44;5024358;27;102132;-49
2022/02/22 07:44:23;;;;;;;18.30;12.88;;;;;;;10.89;67.72;100160.78;5022812;27;104953;-50
2022/02/22 07:46:49;;;;;;;21.90;13.07;;;;;;;10.89;67.86;100155.34;5019022;27;103902;-50
2022/02/22 07:49:17;;;;;;;21.00;12.65;;;;;;;10.90;68.15;100165.97;5024552;27;102275;-50
2022/02/22 07:51:43;;;;;;;18.65;12.77;;;;;;;10.90;67.64;100167.88;5026113;27;102676;-54
2022/02/22 07:54:10;;;;;;;19.00;12.45;;;;;;;10.91;68.04;100164.03;5042449;27;102664;-49
2022/02/22 07:56:36;;;;;;;18.27;12.93;;;;;;;10.89;67.82;100161.63;5040170;27;104222;-49
2022/02/22 07:59:02;;;;;;;21.17;13.18;;;;;;;10.89;67.69;100161.63;5025997;27;102168;-49
2022/02/22 08:01:29;;;;;;;20.38;12.95;;;;;;;10.89;67.83;100155.34;5039603;27;102542;-49
2022/02/22 08:03:55;;;;;;;22.02;12.95;;;;;;;10.89;67.88;100144.44;5040023;27;102807;-49
2022/02/22 08:06:25;;;;;;;18.92;12.88;;;;;;;10.90;67.66;100151.53;5024421;27;103827;-49
2022/02/22 08:08:52;;;;;;;17.73;13.13;;;;;;;10.89;68.10;100141.72;5027772;27;102517;-49
2022/02/22 08:11:18;;;;;;;19.77;13.52;;;;;;;10.90;67.71;100149.63;5032678;27;103391;-48
2022/02/22 08:13:44;;;;;;;18.58;12.98;;;;;;;10.90;68.22;100146.09;5047539;27;102504;-49
2022/02/22 08:16:11;;;;;;;18.15;13.10;;;;;;;10.90;68.23;100149.63;5050115;27;104540;-49
2022/02/22 08:18:37;;;;;;;20.90;13.13;;;;;;;10.91;68.29;100153.16;5050221;27;104770;-50
2022/02/22 08:21:04;;;;;;;19.73;12.68;;;;;;;10.92;67.93;100160.22;5049510;27;102749;-49
2022/02/22 08:23:31;;;;;;;16.80;13.20;;;;;;;10.93;68.31;100156.41;5048396;27;102227;-49
2022/02/22 08:25:59;;;;;;;18.58;13.38;;;;;;;10.94;67.93;100158.03;5022007;27;103950;-50
2022/02/22 08:28:25;;;;;;;16.60;12.45;;;;;;;10.95;68.12;100155.00;5037385;27;102219;-49
2022/02/22 08:30:51;;;;;;;16.77;11.60;;;;;;;10.95;68.32;100154.19;5028495;27;104083;-51
2022/02/22 08:33:17;;;;;;;18.15;12.43;;;;;;;10.96;67.88;100147.66;5028232;27;102554;-49
2022/02/22 08:35:44;;;;;;;19.58;12.65;;;;;;;10.98;68.09;100153.63;5024846;27;103882;-49
2022/02/22 08:38:10;;;;;;;17.27;12.20;;;;;;;10.98;68.36;100148.19;5019511;27;102359;-49
2022/02/22 08:40:38;;;;;;;18.13;12.48;;;;;;;10.98;68.20;100151.72;5026129;27;102673;-49
2022/02/22 08:43:05;;;;;;;15.77;12.13;;;;;;;10.99;68.46;100147.06;5033043;27;106790;-50
2022/02/22 08:45:31;;;;;;;17.73;12.70;;;;;;;11.00;68.08;100151.44;5032896;27;103984;-49
2022/02/22 08:47:57;;;;;;;17.40;12.52;;;;;;;11.00;68.67;100151.44;5033196;27;102945;-49
2022/02/22 08:50:26;;;;;;;16.83;12.77;;;;;;;10.99;68.00;100156.03;5028837;27;102670;-50
2022/02/22 08:52:52;;;;;;;19.65;13.10;;;;;;;11.00;68.02;100163.13;5028519;27;102943;-49
2022/02/22 08:55:19;;;;;;;15.93;12.25;;;;;;;11.02;68.05;100165.56;5033119;27;103906;-50
2022/02/22 08:57:47;;;;;;;21.08;12.70;;;;;;;11.02;68.39;100165.56;5022641;27;102478;-49
2022/02/22 09:00:15;;;;;;;19.88;13.07;;;;;;;11.01;68.15;100158.50;5020248;27;102670;-49
2022/02/22 09:02:42;;;;;;;16.63;12.57;;;;;;;11.02;67.98;100165.56;5032971;27;102932;-49
2022/02/22 09:05:09;;;;;;;17.55;13.80;;;;;;;11.01;68.31;100158.50;5045367;27;103848;-49
2022/02/22 09:07:39;;;;;;;17.75;13.95;;;;;;;11.01;68.48;100164.75;5054430;27;102504;-48
2022/02/22 09:10:06;;;;;;;23.75;14.73;;;;;;;11.01;68.17;100167.47;5040746;27;102905;-48
2022/02/22 09:12:38;;;;;;;20.48;13.88;;;;;;;11.02;68.06;100171.00;5047810;27;102650;-49
2022/02/22 09:15:10;;;;;;;19.17;14.48;;;;;;;11.03;68.15;100178.06;5047624;27;104175;-48
2022/02/22 09:17:37;;;;;;;;;;;;;;;11.01;68.05;100175.66;5044836;27;102096;-49
2022/02/22 09:20:05;;;;;;;26.13;15.57;;;;;;;11.02;68.16;100171.00;5038375;27;103290;-49
2022/02/22 09:22:32;;;;;;;19.98;15.15;;;;;;;11.02;67.83;100171.00;5028025;27;104321;-49
2022/02/22 09:24:58;;;;;;;22.30;16.58;;;;;;;11.02;68.25;100182.72;5022060;27;103942;-49
2022/02/22 09:27:24;;;;;;;24.58;16.15;;;;;;;11.02;68.14;100176.47;5039472;27;102603;-48
2022/02/22 09:29:51;;;;;;;21.00;15.38;;;;;;;11.02;68.46;100176.47;5031655;27;102457;-49
2022/02/22 09:32:18;;;;;;;19.40;14.88;;;;;;;11.02;68.17;100171.00;5037823;27;102653;-49
2022/02/22 09:34:44;;;;;;;21.27;15.27;;;;;;;11.02;68.24;100165.56;5045431;27;103986;-49
2022/02/22 09:37:11;;;;;;;22.13;15.30;;;;;;;11.01;68.42;100169.41;5038921;27;102657;-50
2022/02/22 09:39:38;;;;;;;17.48;14.68;;;;;;;11.02;68.15;100174.53;5048282;27;102094;-49
2022/02/22 09:42:08;;;;;;;21.83;15.85;;;;;;;11.03;68.04;100178.06;5042704;27;102655;-49
2022/02/22 09:44:35;;;;;;;20.58;14.35;;;;;;;11.02;68.34;100192.78;5023997;27;104132;-49
2022/02/22 09:47:03;;;;;;;23.45;14.63;;;;;;;11.02;68.36;100195.50;5020129;27;103037;-48
2022/02/22 09:49:31;;;;;;;21.02;15.00;;;;;;;11.03;68.17;100194.41;5023838;27;102852;-49
2022/02/22 09:51:58;;;;;;;19.70;15.23;;;;;;;11.02;68.27;100181.91;5019705;27;103547;-48
2022/02/22 09:54:25;;;;;;;22.25;15.27;;;;;;;11.04;68.69;100198.78;5023840;27;104064;-49
2022/02/22 09:56:52;;;;;;;21.05;15.23;;;;;;;11.04;68.05;100201.50;5026569;27;102716;-48
2022/02/22 09:59:21;;;;;;;19.75;15.05;;;;;;;11.03;68.53;100200.69;5022664;27;102676;-48
2022/02/22 10:01:51;;;;;;;21.00;15.15;;;;;;;11.04;68.40;100196.84;5019256;27;103435;-53
2022/02/22 10:04:17;;;;;;;20.05;15.18;;;;;;;11.04;68.45;100196.06;5019924;27;103894;-49
2022/02/22 10:06:45;;;;;;;21.77;14.95;;;;;;;11.04;68.17;100201.50;5022185;27;102535;-49
2022/02/22 10:09:13;;;;;;;16.27;14.07;;;;;;;11.04;68.57;100198.78;5037755;27;102502;-49
2022/02/22 10:11:47;;;;;;;17.70;13.52;;;;;;;11.04;68.33;100204.22;5041538;27;102291;-49
2022/02/22 10:14:21;;;;;;;19.90;14.10;;;;;;;11.03;68.19;100194.41;5039613;27;104038;-48
2022/02/22 10:16:49;;;;;;;16.85;13.60;;;;;;;11.04;68.09;100201.50;5020081;27;102514;-50
2022/02/22 10:19:16;;;;;;;21.35;14.25;;;;;;;11.03;68.47;100205.28;5017826;27;102635;-49
2022/02/22 10:21:51;;;;;;;21.55;14.13;;;;;;;11.03;68.12;100197.97;5020826;27;102820;-48
2022/02/22 10:24:19;;;;;;;18.42;14.30;;;;;;;11.04;68.61;100206.94;5021675;27;103932;-48
2022/02/22 10:26:45;;;;;;;18.98;13.95;;;;;;;11.04;68.10;100201.50;5022820;27;104032;-48
2022/02/22 10:29:14;;;;;;;19.25;13.48;;;;;;;11.03;68.63;100210.75;5031617;27;103558;-48
2022/02/22 10:31:41;;;;;;;18.13;14.07;;;;;;;11.03;68.21;100208.88;5043237;27;102443;-48
2022/02/22 10:34:07;;;;;;;19.90;14.45;;;;;;;11.03;68.65;100208.88;5044000;27;103890;-48
2022/02/22 10:36:37;;;;;;;18.02;14.50;;;;;;;11.03;68.13;100208.03;5038561;27;102735;-48
2022/02/22 10:39:06;;;;;;;18.77;15.15;;;;;;;11.02;68.56;100206.41;5032945;27;102323;-48
2022/02/22 10:41:37;;;;;;;24.42;15.40;;;;;;;11.03;68.75;100210.75;5025768;27;102747;-49
2022/02/22 10:44:04;;;;;;;20.27;14.75;;;;;;;11.04;68.47;100198.78;5026859;27;103927;-48
2022/02/22 10:46:32;;;;;;;18.38;14.15;;;;;;;11.02;68.35;100204.50;5014332;27;104191;-48
2022/02/22 10:49:01;;;;;;;18.13;14.18;;;;;;;11.03;67.99;100202.56;5013488;27;102700;-49
2022/02/22 10:51:38;;;;;;;23.27;15.60;;;;;;;11.02;68.31;100203.69;5023943;27;102417;-48
2022/02/22 10:54:07;;;;;;;21.05;15.02;;;;;;;11.04;68.10;100217.84;5016355;27;103877;-49
2022/02/22 10:56:35;;;;;;;20.70;14.75;;;;;;;11.03;68.15;100217.03;5021270;27;105885;-48
2022/02/22 10:59:03;;;;;;;17.92;13.68;;;;;;;11.03;68.46;100218.91;5022756;27;102149;-49
2022/02/22 11:01:30;;;;;;;19.33;14.38;;;;;;;11.02;68.31;100215.38;5033430;27;102229;-49